• Join FlightAware (Why Join?)
  • Login
  • US Flag 
Gobble Gobble! 
05:45AM EST


 

Airport Tracker/Info


-or-


 

Live Flight TrackerFlight Track Log ✈ PDT4373 ✈ 15-Oct-2013 ✈ KPHL - KBGM

Flight Track Log - Related Links

Times and Time Zones

All times are in EDT time to prevent confusion due to time zone crossing. See the PDT4373 flight status page for this flight to view local times or setup timezone preferences in your user account.

Time Position Orientation Groundspeed Altitude Reporting Facility
EDT Latitude Longitude Course Direction KTS MPH feet Rate Location/Type
09:55AM 39.8833 -75.2000 311° West 124 143 500  Level Philadelphia TRACON
09:56AM 39.9000 -75.1833 37° Northeast 124 143 1,400 1,740 Climbing Philadelphia TRACON
09:57AM 39.9167 -75.1667 37° Northeast 135 155 3,000 1,440 Climbing Philadelphia TRACON
09:58AM 40.0975 -75.3098 311° West  Level Estimated
09:58AM 39.9667 -75.1833 346° North 152 175 4,400  Level Philadelphia TRACON
09:59AM 40.1725 -75.3328 311° West  Level Estimated
09:59AM 40.0000 -75.2167 323° Northwest 150 173 6,000  Level Philadelphia TRACON
10:00AM 40.2079 -75.4225 297° West  Level FlightAware Approximate
10:00AM 40.0333 -75.2333 339° North 150 173 7,400  Level Philadelphia TRACON
10:01AM 40.2834 -75.4429 311° West  Level Estimated
10:01AM 40.0833 -75.2500 346° North 158 182 8,600  Level Philadelphia TRACON
10:02AM 40.1167 -75.2833 323° Northwest 213 245 9,000 240 Climbing Philadelphia TRACON
10:02AM 40.1258 -75.3233 287° West 228 262 9,000  Level New York Center
10:03AM 40.1558 -75.4094 295° West 270 311 9,000  Level New York Center
10:04AM 40.1864 -75.4794 300° West 254 292 9,000  Level New York Center
10:05AM 40.2186 -75.5550 299° West 241 277 9,000 240 Level New York Center
10:06AM 40.2656 -75.6292 310° West 241 277 9,500 900 Climbing New York Center
10:07AM 40.2989 -75.6858 308° West 222 255 10,900 1,200 Climbing New York Center
10:08AM 40.3319 -75.7372 310° West 195 224 11,900 540 Climbing New York Center
10:09AM 40.3675 -75.7889 312° West 195 224 12,000 300 Climbing New York Center
10:10AM 40.4064 -75.8489 310° West 209 241 12,600 840 Climbing New York Center
10:11AM 40.4656 -75.8778 340° North 202 232 13,800 660 Climbing New York Center
10:12AM 40.5228 -75.9067 339° North 207 238 14,000 60 Climbing New York Center
10:13AM 40.5881 -75.9361 341° North 231 266 14,000  Level New York Center
10:14AM 40.6539 -75.9603 344° North 243 280 14,000  Level New York Center
10:15AM 40.7156 -75.9786 347° North 248 285 14,000  Level New York Center
10:16AM 40.7892 -76.0089 343° North 248 285 14,000  Level New York Center
10:17AM 40.8544 -76.0414 339° North 253 291 14,000  Level New York Center
10:18AM 40.9178 -76.0708 341° North 253 291 14,000  Level New York Center
10:19AM 40.9892 -76.1039 341° North 258 297 14,000  Level New York Center
10:20AM 41.0564 -76.1367 340° North 258 297 14,000  Level New York Center
10:21AM 41.1261 -76.1617 345° North 258 297 14,000  Level New York Center
10:22AM 41.1875 -76.1886 342° North 258 297 14,000  Level New York Center
10:23AM 41.2553 -76.2106 346° North 258 297 14,000  Level New York Center
10:24AM 41.3350 -76.1975 North 253 291 14,000  Level New York Center
10:25AM 41.4058 -76.1950 North 258 297 14,000  Level New York Center
10:26AM 41.4767 -76.1925 North 258 297 14,000 -600 Level New York Center
10:27AM 41.5461 -76.1814 North 266 306 12,900 -1,380 Descending New York Center
10:28AM 41.6236 -76.1683 North 279 321 11,300 -1,740 Descending New York Center
10:29AM 41.7092 -76.1642 North 279 321 9,500 -1,860 Descending New York Center
10:30AM 41.7828 -76.1478 North 274 315 7,600 -1,980 Descending New York Center
10:31AM 41.8506 -76.1225 16° North 264 304 5,600 -1,320 Descending New York Center
10:32AM 41.9117 -76.1081 10° North 245 282 5,000 -600 Descending New York Center
10:33AM 41.9772 -76.0853 14° North 245 282 4,500 -720 Descending New York Center
10:34AM 42.0431 -76.0572 18° North 236 272 3,600 -540 Descending New York Center
10:35AM 42.0942 -76.0333 19° North 224 258 3,500 -360 Descending New York Center
10:36AM 42.1336 -75.9833 43° Northeast 202 232 2,900 -600 Descending New York Center
10:37AM 42.1642 -75.9522 37° Northeast 168 193 2,400 -360 Descending New York Center
10:38AM 42.2031 -75.9189 32° Northeast 150 173 2,200 -240 Descending New York Center